Terminal Aerodrome Forecast
Issued by NWS Buffalo, NY

Home | Current Version | Previous Version | Text Only | Print | Product List | Glossary On
Versions: 1 2 3 4 5 6 7 8 9 10 11 12 13 14 15 16 17 18 19 20 21 22 23 24 25 26 27 28
000
FTUS41 KBUF 150900 AAA
TAFBUF
TAF AMD
KBUF 150915Z 1509/1606 17004KT P6SM OVC060
     FM151500 23008KT P6SM SCT045 BKN140
     FM152300 23004KT P6SM SCT045 OVC090
     FM160000 VRB03KT P6SM VCSH SCT045 OVC080
     FM160200 22004KT P6SM -SHRA OVC045
     FM160300 22006KT P6SM -SHRA OVC025=

USA.gov is the U.S. government's official web portal to all federal, state and local government web resources and services.